Impacts METAR Board
IDs:

KSAN - San Diego Intl Arpt, CA, US

Updated at: 0900 UTC 25 May 2020
Potential Impact None Slight Moderate High
Time 24/21Z 24/22Z 24/23Z 25/00Z 25/01Z 25/02Z 25/03Z 25/04Z 25/05Z 25/06Z 25/07Z 25/08Z 25/09Z
Temp71 72 70 69 69 67 66 65 65 64 64 65 65
Dewpt56 56 57 56 56 56 57 57 57 57 58 57 57
Altim29.94 29.93 29.92 29.92 29.90 29.89 29.89 29.91 29.94 29.93 29.93 29.92 29.90
VIS10 10 10 10 10 10 10 10 10 10 10 10 10
CIG20 19 18 -- -- -- -- -- -- -- 12 11 12
CoverBKNBKNBKNSCTFEWFEWFEWFEWFEWSCTOVCOVCBKN
FltCatMVFRMVFRMVFRVFRVFRVFRVFRVFRVFRVFRMVFRMVFRMVFR
WX--------------------------
WDir3002802702602903102902903003003104070
WSpd10 10 9 7 4 4 5 6 4 3 3 4 3
WGst-- -- -- -- -- -- -- -- -- -- -- -- --
Raw hourly METARs
KSAN 242051Z 30010KT 10SM BKN020 22/13 A2994 RMK AO2 SLP137 T02170133 58010
KSAN 242151Z 28010KT 10SM BKN019 22/13 A2993 RMK AO2 SLP136 T02220133
KSAN 242251Z 27009KT 10SM BKN018 21/14 A2992 RMK AO2 SLP131 T02110139
KSAN 242351Z 26007KT 230V300 10SM SCT018 21/13 A2992 RMK AO2 SLP130 T02060133 10222 20206 56007
KSAN 250051Z 29004KT 10SM FEW017 21/13 A2990 RMK AO2 SLP125 T02060133
KSAN 250151Z 31004KT 10SM FEW015 19/13 A2989 RMK AO2 SLP122 T01940133
KSAN 250251Z 29005KT 10SM FEW012 19/14 A2989 RMK AO2 SLP122 T01890139 55008
KSAN 250351Z 29006KT 10SM FEW012 18/14 A2991 RMK AO2 SLP127 T01830139
KSAN 250451Z 30004KT 10SM FEW012 18/14 A2994 RMK AO2 SLP136 T01830139
KSAN 250551Z 30003KT 10SM SCT015 18/14 A2993 RMK AO2 SLP136 T01780139 10211 20178 50014
KSAN 250651Z 31003KT 10SM OVC012 18/14 A2993 RMK AO2 SLP135 T01780144
KSAN 250751Z 04004KT 10SM OVC011 18/14 A2992 RMK AO2 SLP130 T01830139 402220161
KSAN 250851Z 07003KT 10SM BKN012 18/14 A2990 RMK AO2 SLP125 T01830139 58011



Page loaded:  09:22 UTC  |   02:22 AM Pacific  |   03:22 AM Mountain  |   04:22 AM Central  |   05:22 AM Eastern

 

ADVISORIES

FORECASTS

FORECASTS

OBSERVATIONS

USER TOOLS

ABOUT US